sensor_id;sensor_type;location;lat;lon;timestamp;P1;durP1;ratioP1;P2;durP2;ratioP2
72785;SDS011;60902;53.876;10.674;2023-01-29T00:00:01;13.70;;;9.95;;
72785;SDS011;60902;53.876;10.674;2023-01-29T00:00:15;13.95;;;10.20;;
72785;SDS011;60902;53.876;10.674;2023-01-29T00:00:27;13.82;;;10.20;;
72785;SDS011;60902;53.876;10.674;2023-01-29T00:00:38;13.48;;;10.48;;
72785;SDS011;60902;53.876;10.674;2023-01-29T00:00:49;13.70;;;10.45;;
72785;SDS011;60902;53.876;10.674;2023-01-29T00:01:01;14.18;;;10.10;;
72785;SDS011;60902;53.876;10.674;2023-01-29T00:01:12;13.93;;;9.68;;
72785;SDS011;60902;53.876;10.674;2023-01-29T00:01:24;14.32;;;9.95;;
72785;SDS011;60902;53.876;10.674;2023-01-29T00:01:35;14.65;;;10.45;;
72785;SDS011;60902;53.876;10.674;2023-01-29T00:01:46;14.45;;;10.68;;
72785;SDS011;60902;53.876;10.674;2023-01-29T00:01:57;13.40;;;10.05;;
72785;SDS011;60902;53.876;10.674;2023-01-29T00:02:07;12.95;;;9.88;;
72785;SDS011;60902;53.876;10.674;2023-01-29T00:02:19;13.05;;;9.70;;
72785;SDS011;60902;53.876;10.674;2023-01-29T00:02:29;13.20;;;9.70;;
72785;SDS011;60902;53.876;10.674;2023-01-29T00:02:41;13.45;;;9.65;;
72785;SDS011;60902;53.876;10.674;2023-01-29T00:02:52;13.93;;;9.80;;
72785;SDS011;60902;53.876;10.674;2023-01-29T00:03:04;13.87;;;9.70;;
72785;SDS011;60902;53.876;10.674;2023-01-29T00:03:15;13.52;;;9.98;;
72785;SDS011;60902;53.876;10.674;2023-01-29T00:03:28;13.32;;;9.98;;
72785;SDS011;60902;53.876;10.674;2023-01-29T00:03:39;13.55;;;9.85;;
72785;SDS011;60902;53.876;10.674;2023-01-29T00:03:50;13.80;;;9.93;;
72785;SDS011;60902;53.876;10.674;2023-01-29T00:04:02;13.38;;;9.95;;
72785;SDS011;60902;53.876;10.674;2023-01-29T00:04:13;13.13;;;10.07;;
72785;SDS011;60902;53.876;10.674;2023-01-29T00:04:24;13.07;;;10.05;;
72785;SDS011;60902;53.876;10.674;2023-01-29T00:04:38;12.90;;;10.05;;
72785;SDS011;60902;53.876;10.674;2023-01-29T00:04:48;12.70;;;10.10;;
72785;SDS011;60902;53.876;10.674;2023-01-29T00:05:02;13.10;;;9.98;;
72785;SDS011;60902;53.876;10.674;2023-01-29T00:05:14;13.52;;;10.02;;
72785;SDS011;60902;53.876;10.674;2023-01-29T00:05:27;13.68;;;9.82;;
72785;SDS011;60902;53.876;10.674;2023-01-29T00:05:37;13.75;;;9.77;;
72785;SDS011;60902;53.876;10.674;2023-01-29T00:05:48;13.23;;;9.55;;
72785;SDS011;60902;53.876;10.674;2023-01-29T00:05:59;12.83;;;9.77;;
72785;SDS011;60902;53.876;10.674;2023-01-29T00:06:13;13.27;;;9.82;;
72785;SDS011;60902;53.876;10.674;2023-01-29T00:06:25;13.50;;;9.68;;
72785;SDS011;60902;53.876;10.674;2023-01-29T00:06:37;13.50;;;9.73;;
72785;SDS011;60902;53.876;10.674;2023-01-29T00:06:48;13.55;;;10.10;;
72785;SDS011;60902;53.876;10.674;2023-01-29T00:07:00;13.27;;;9.95;;
72785;SDS011;60902;53.876;10.674;2023-01-29T00:07:11;13.30;;;10.02;;
72785;SDS011;60902;53.876;10.674;2023-01-29T00:07:22;13.52;;;10.13;;
72785;SDS011;60902;53.876;10.674;2023-01-29T00:07:33;13.20;;;10.30;;
72785;SDS011;60902;53.876;10.674;2023-01-29T00:07:43;13.90;;;10.27;;
72785;SDS011;60902;53.876;10.674;2023-01-29T00:07:54;14.10;;;10.50;;
72785;SDS011;60902;53.876;10.674;2023-01-29T00:08:06;13.98;;;10.65;;
72785;SDS011;60902;53.876;10.674;2023-01-29T00:08:16;13.60;;;10.57;;
72785;SDS011;60902;53.876;10.674;2023-01-29T00:08:28;14.10;;;10.60;;
72785;SDS011;60902;53.876;10.674;2023-01-29T00:08:39;14.45;;;10.70;;
72785;SDS011;60902;53.876;10.674;2023-01-29T00:08:50;14.52;;;10.85;;
72785;SDS011;60902;53.876;10.674;2023-01-29T00:09:01;13.87;;;10.43;;
72785;SDS011;60902;53.876;10.674;2023-01-29T00:09:12;14.13;;;10.23;;
72785;SDS011;60902;53.876;10.674;2023-01-29T00:09:23;14.57;;;10.23;;
72785;SDS011;60902;53.876;10.674;2023-01-29T00:09:34;15.00;;;10.07;;
72785;SDS011;60902;53.876;10.674;2023-01-29T00:09:45;14.25;;;10.02;;
72785;SDS011;60902;53.876;10.674;2023-01-29T00:09:56;14.38;;;10.02;;
72785;SDS011;60902;53.876;10.674;2023-01-29T00:10:08;13.40;;;10.00;;
72785;SDS011;60902;53.876;10.674;2023-01-29T00:10:20;13.35;;;10.13;;
72785;SDS011;60902;53.876;10.674;2023-01-29T00:10:30;13.55;;;10.20;;
72785;SDS011;60902;53.876;10.674;2023-01-29T00:10:41;13.75;;;10.45;;
72785;SDS011;60902;53.876;10.674;2023-01-29T00:10:52;13.70;;;10.38;;
72785;SDS011;60902;53.876;10.674;2023-01-29T00:11:10;13.88;;;10.32;;
72785;SDS011;60902;53.876;10.674;2023-01-29T00:11:25;13.50;;;10.20;;
72785;SDS011;60902;53.876;10.674;2023-01-29T00:11:36;13.30;;;10.07;;
72785;SDS011;60902;53.876;10.674;2023-01-29T00:11:47;13.55;;;10.10;;
72785;SDS011;60902;53.876;10.674;2023-01-29T00:11:58;13.65;;;10.10;;
72785;SDS011;60902;53.876;10.674;2023-01-29T00:12:09;13.95;;;10.23;;
72785;SDS011;60902;53.876;10.674;2023-01-29T00:12:20;14.27;;;10.38;;
72785;SDS011;60902;53.876;10.674;2023-01-29T00:12:31;14.15;;;10.25;;
72785;SDS011;60902;53.876;10.674;2023-01-29T00:12:42;13.60;;;10.03;;
72785;SDS011;60902;53.876;10.674;2023-01-29T00:12:53;13.27;;;10.00;;
72785;SDS011;60902;53.876;10.674;2023-01-29T00:13:04;13.63;;;10.50;;
72785;SDS011;60902;53.876;10.674;2023-01-29T00:13:15;13.35;;;10.40;;
72785;SDS011;60902;53.876;10.674;2023-01-29T00:13:26;13.27;;;10.07;;
72785;SDS011;60902;53.876;10.674;2023-01-29T00:13:36;13.00;;;9.37;;
72785;SDS011;60902;53.876;10.674;2023-01-29T00:13:47;13.23;;;9.32;;
72785;SDS011;60902;53.876;10.674;2023-01-29T00:13:58;13.02;;;9.40;;
72785;SDS011;60902;53.876;10.674;2023-01-29T00:14:12;13.63;;;9.80;;
72785;SDS011;60902;53.876;10.674;2023-01-29T00:14:23;13.15;;;10.05;;
72785;SDS011;60902;53.876;10.674;2023-01-29T00:14:35;13.65;;;10.35;;
72785;SDS011;60902;53.876;10.674;2023-01-29T00:14:46;13.43;;;9.98;;
72785;SDS011;60902;53.876;10.674;2023-01-29T00:14:57;13.60;;;9.70;;
72785;SDS011;60902;53.876;10.674;2023-01-29T00:15:08;13.55;;;9.55;;
72785;SDS011;60902;53.876;10.674;2023-01-29T00:15:18;14.00;;;10.07;;
72785;SDS011;60902;53.876;10.674;2023-01-29T00:15:29;13.85;;;10.15;;
72785;SDS011;60902;53.876;10.674;2023-01-29T00:15:40;13.75;;;10.02;;
72785;SDS011;60902;53.876;10.674;2023-01-29T00:15:52;13.13;;;9.50;;
72785;SDS011;60902;53.876;10.674;2023-01-29T00:16:04;13.23;;;9.77;;
72785;SDS011;60902;53.876;10.674;2023-01-29T00:16:15;13.02;;;9.80;;
72785;SDS011;60902;53.876;10.674;2023-01-29T00:16:26;13.57;;;9.88;;
72785;SDS011;60902;53.876;10.674;2023-01-29T00:16:37;13.80;;;9.77;;
72785;SDS011;60902;53.876;10.674;2023-01-29T00:16:48;13.98;;;9.77;;
72785;SDS011;60902;53.876;10.674;2023-01-29T00:17:00;14.73;;;9.88;;
72785;SDS011;60902;53.876;10.674;2023-01-29T00:17:10;14.15;;;10.18;;
72785;SDS011;60902;53.876;10.674;2023-01-29T00:17:21;13.65;;;10.02;;
72785;SDS011;60902;53.876;10.674;2023-01-29T00:17:32;12.65;;;9.68;;
72785;SDS011;60902;53.876;10.674;2023-01-29T00:17:43;12.45;;;9.55;;
72785;SDS011;60902;53.876;10.674;2023-01-29T00:17:54;12.75;;;9.55;;
72785;SDS011;60902;53.876;10.674;2023-01-29T00:18:05;13.77;;;9.88;;
72785;SDS011;60902;53.876;10.674;2023-01-29T00:18:16;14.00;;;9.70;;
72785;SDS011;60902;53.876;10.674;2023-01-29T00:18:27;14.10;;;9.93;;
72785;SDS011;60902;53.876;10.674;2023-01-29T00:18:40;13.77;;;9.98;;
72785;SDS011;60902;53.876;10.674;2023-01-29T00:18:51;14.88;;;10.40;;
72785;SDS011;60902;53.876;10.674;2023-01-29T00:19:02;15.20;;;10.55;;
72785;SDS011;60902;53.876;10.674;2023-01-29T00:19:13;14.68;;;10.15;;
72785;SDS011;60902;53.876;10.674;2023-01-29T00:19:24;13.75;;;9.60;;
72785;SDS011;60902;53.876;10.674;2023-01-29T00:19:35;13.93;;;9.45;;
72785;SDS011;60902;53.876;10.674;2023-01-29T00:19:47;14.15;;;9.95;;
72785;SDS011;60902;53.876;10.674;2023-01-29T00:19:57;14.43;;;10.20;;
72785;SDS011;60902;53.876;10.674;2023-01-29T00:20:09;13.88;;;10.20;;
72785;SDS011;60902;53.876;10.674;2023-01-29T00:20:20;13.23;;;10.10;;
72785;SDS011;60902;53.876;10.674;2023-01-29T00:20:31;13.52;;;10.32;;
72785;SDS011;60902;53.876;10.674;2023-01-29T00:20:43;13.45;;;10.45;;
72785;SDS011;60902;53.876;10.674;2023-01-29T00:20:53;13.38;;;10.10;;
72785;SDS011;60902;53.876;10.674;2023-01-29T00:21:07;13.32;;;9.95;;
72785;SDS011;60902;53.876;10.674;2023-01-29T00:21:19;13.73;;;10.20;;
72785;SDS011;60902;53.876;10.674;2023-01-29T00:21:32;13.68;;;10.20;;
72785;SDS011;60902;53.876;10.674;2023-01-29T00:21:44;13.32;;;9.93;;
72785;SDS011;60902;53.876;10.674;2023-01-29T00:21:55;13.30;;;9.88;;
72785;SDS011;60902;53.876;10.674;2023-01-29T00:22:07;13.43;;;9.80;;
72785;SDS011;60902;53.876;10.674;2023-01-29T00:22:17;13.15;;;9.75;;
72785;SDS011;60902;53.876;10.674;2023-01-29T00:22:29;13.13;;;9.73;;
72785;SDS011;60902;53.876;10.674;2023-01-29T00:22:40;13.68;;;9.90;;
72785;SDS011;60902;53.876;10.674;2023-01-29T00:22:51;14.10;;;9.70;;
72785;SDS011;60902;53.876;10.674;2023-01-29T00:23:02;13.70;;;9.55;;
72785;SDS011;60902;53.876;10.674;2023-01-29T00:23:13;13.45;;;9.57;;
72785;SDS011;60902;53.876;10.674;2023-01-29T00:23:24;13.18;;;9.73;;
72785;SDS011;60902;53.876;10.674;2023-01-29T00:23:35;14.00;;;10.57;;
72785;SDS011;60902;53.876;10.674;2023-01-29T00:23:46;14.10;;;10.85;;
72785;SDS011;60902;53.876;10.674;2023-01-29T00:23:58;14.20;;;10.80;;
72785;SDS011;60902;53.876;10.674;2023-01-29T00:24:09;14.17;;;10.33;;
72785;SDS011;60902;53.876;10.674;2023-01-29T00:24:20;14.52;;;10.25;;
72785;SDS011;60902;53.876;10.674;2023-01-29T00:24:31;15.17;;;10.33;;
72785;SDS011;60902;53.876;10.674;2023-01-29T00:24:42;14.75;;;10.40;;
72785;SDS011;60902;53.876;10.674;2023-01-29T00:24:53;14.38;;;10.07;;
72785;SDS011;60902;53.876;10.674;2023-01-29T00:25:04;13.68;;;10.02;;
72785;SDS011;60902;53.876;10.674;2023-01-29T00:25:17;13.98;;;9.95;;
72785;SDS011;60902;53.876;10.674;2023-01-29T00:25:28;14.20;;;10.18;;
72785;SDS011;60902;53.876;10.674;2023-01-29T00:25:38;14.15;;;10.32;;
72785;SDS011;60902;53.876;10.674;2023-01-29T00:25:49;14.17;;;10.53;;
72785;SDS011;60902;53.876;10.674;2023-01-29T00:26:00;13.38;;;10.15;;
72785;SDS011;60902;53.876;10.674;2023-01-29T00:26:11;13.15;;;9.98;;
72785;SDS011;60902;53.876;10.674;2023-01-29T00:26:22;13.02;;;9.70;;
72785;SDS011;60902;53.876;10.674;2023-01-29T00:26:33;13.38;;;10.02;;
72785;SDS011;60902;53.876;10.674;2023-01-29T00:26:46;13.70;;;10.00;;
72785;SDS011;60902;53.876;10.674;2023-01-29T00:26:59;13.23;;;9.63;;
72785;SDS011;60902;53.876;10.674;2023-01-29T00:27:09;12.95;;;9.23;;
72785;SDS011;60902;53.876;10.674;2023-01-29T00:27:20;13.40;;;9.35;;
72785;SDS011;60902;53.876;10.674;2023-01-29T00:27:31;13.02;;;9.50;;
72785;SDS011;60902;53.876;10.674;2023-01-29T00:27:42;12.48;;;9.55;;
72785;SDS011;60902;53.876;10.674;2023-01-29T00:27:53;13.02;;;10.15;;
72785;SDS011;60902;53.876;10.674;2023-01-29T00:28:04;13.85;;;10.35;;
72785;SDS011;60902;53.876;10.674;2023-01-29T00:28:15;14.40;;;10.27;;
72785;SDS011;60902;53.876;10.674;2023-01-29T00:28:27;14.10;;;10.00;;
72785;SDS011;60902;53.876;10.674;2023-01-29T00:28:37;14.77;;;10.40;;
72785;SDS011;60902;53.876;10.674;2023-01-29T00:28:48;15.70;;;10.32;;
72785;SDS011;60902;53.876;10.674;2023-01-29T00:28:59;15.35;;;10.20;;
72785;SDS011;60902;53.876;10.674;2023-01-29T00:29:11;14.32;;;9.93;;
72785;SDS011;60902;53.876;10.674;2023-01-29T00:29:21;13.48;;;9.88;;
72785;SDS011;60902;53.876;10.674;2023-01-29T00:29:32;13.35;;;10.00;;
72785;SDS011;60902;53.876;10.674;2023-01-29T00:29:43;12.57;;;9.83;;
72785;SDS011;60902;53.876;10.674;2023-01-29T00:30:15;12.70;;;9.35;;
72785;SDS011;60902;53.876;10.674;2023-01-29T00:30:28;13.27;;;9.43;;
72785;SDS011;60902;53.876;10.674;2023-01-29T00:30:38;13.73;;;9.65;;
72785;SDS011;60902;53.876;10.674;2023-01-29T00:30:50;13.35;;;9.25;;
72785;SDS011;60902;53.876;10.674;2023-01-29T00:31:05;12.95;;;9.23;;
72785;SDS011;60902;53.876;10.674;2023-01-29T00:31:18;13.27;;;9.25;;
72785;SDS011;60902;53.876;10.674;2023-01-29T00:31:31;13.93;;;9.65;;
72785;SDS011;60902;53.876;10.674;2023-01-29T00:31:42;14.50;;;10.05;;
72785;SDS011;60902;53.876;10.674;2023-01-29T00:31:54;14.63;;;10.15;;
72785;SDS011;60902;53.876;10.674;2023-01-29T00:32:04;14.30;;;10.15;;
72785;SDS011;60902;53.876;10.674;2023-01-29T00:32:15;13.73;;;9.97;;
72785;SDS011;60902;53.876;10.674;2023-01-29T00:32:26;13.93;;;10.30;;
72785;SDS011;60902;53.876;10.674;2023-01-29T00:32:37;13.95;;;10.80;;
72785;SDS011;60902;53.876;10.674;2023-01-29T00:32:48;13.40;;;10.55;;
72785;SDS011;60902;53.876;10.674;2023-01-29T00:33:00;13.13;;;10.13;;
72785;SDS011;60902;53.876;10.674;2023-01-29T00:33:11;13.45;;;9.90;;
72785;SDS011;60902;53.876;10.674;2023-01-29T00:33:22;14.13;;;10.07;;
72785;SDS011;60902;53.876;10.674;2023-01-29T00:33:33;14.02;;;10.20;;
72785;SDS011;60902;53.876;10.674;2023-01-29T00:33:44;14.18;;;10.32;;
72785;SDS011;60902;53.876;10.674;2023-01-29T00:33:55;14.70;;;10.20;;
72785;SDS011;60902;53.876;10.674;2023-01-29T00:34:06;14.52;;;9.77;;
72785;SDS011;60902;53.876;10.674;2023-01-29T00:34:17;13.73;;;9.40;;
72785;SDS011;60902;53.876;10.674;2023-01-29T00:34:29;12.55;;;9.23;;
72785;SDS011;60902;53.876;10.674;2023-01-29T00:34:39;12.35;;;9.23;;
72785;SDS011;60902;53.876;10.674;2023-01-29T00:34:50;13.13;;;9.73;;
72785;SDS011;60902;53.876;10.674;2023-01-29T00:35:01;13.23;;;9.65;;
72785;SDS011;60902;53.876;10.674;2023-01-29T00:35:12;13.32;;;9.93;;
72785;SDS011;60902;53.876;10.674;2023-01-29T00:35:23;13.55;;;9.90;;
72785;SDS011;60902;53.876;10.674;2023-01-29T00:35:34;13.53;;;10.27;;
72785;SDS011;60902;53.876;10.674;2023-01-29T00:35:45;13.50;;;10.27;;
72785;SDS011;60902;53.876;10.674;2023-01-29T00:35:57;13.05;;;9.98;;
72785;SDS011;60902;53.876;10.674;2023-01-29T00:36:11;13.20;;;9.93;;
72785;SDS011;60902;53.876;10.674;2023-01-29T00:36:24;13.27;;;10.27;;
72785;SDS011;60902;53.876;10.674;2023-01-29T00:36:35;13.25;;;10.27;;
72785;SDS011;60902;53.876;10.674;2023-01-29T00:36:48;13.13;;;9.93;;
72785;SDS011;60902;53.876;10.674;2023-01-29T00:36:58;13.75;;;9.93;;
72785;SDS011;60902;53.876;10.674;2023-01-29T00:37:13;13.65;;;10.20;;
72785;SDS011;60902;53.876;10.674;2023-01-29T00:37:24;12.77;;;9.70;;
72785;SDS011;60902;53.876;10.674;2023-01-29T00:37:36;13.50;;;10.10;;
72785;SDS011;60902;53.876;10.674;2023-01-29T00:37:47;13.52;;;9.88;;
72785;SDS011;60902;53.876;10.674;2023-01-29T00:37:58;13.40;;;10.02;;
72785;SDS011;60902;53.876;10.674;2023-01-29T00:38:09;13.10;;;10.00;;
72785;SDS011;60902;53.876;10.674;2023-01-29T00:38:20;13.82;;;10.30;;
72785;SDS011;60902;53.876;10.674;2023-01-29T00:38:31;13.88;;;10.02;;
72785;SDS011;60902;53.876;10.674;2023-01-29T00:38:45;13.30;;;9.02;;
72785;SDS011;60902;53.876;10.674;2023-01-29T00:39:07;12.77;;;9.23;;
72785;SDS011;60902;53.876;10.674;2023-01-29T00:39:19;13.68;;;10.15;;
72785;SDS011;60902;53.876;10.674;2023-01-29T00:39:34;13.65;;;10.23;;
72785;SDS011;60902;53.876;10.674;2023-01-29T00:39:47;12.88;;;9.95;;
72785;SDS011;60902;53.876;10.674;2023-01-29T00:39:58;12.85;;;9.82;;
72785;SDS011;60902;53.876;10.674;2023-01-29T00:40:10;13.02;;;9.70;;
72785;SDS011;60902;53.876;10.674;2023-01-29T00:40:22;13.95;;;10.00;;
72785;SDS011;60902;53.876;10.674;2023-01-29T00:40:35;13.85;;;9.50;;
72785;SDS011;60902;53.876;10.674;2023-01-29T00:41:05;13.35;;;9.55;;
72785;SDS011;60902;53.876;10.674;2023-01-29T00:41:35;12.73;;;9.18;;
72785;SDS011;60902;53.876;10.674;2023-01-29T00:42:04;12.52;;;9.45;;
72785;SDS011;60902;53.876;10.674;2023-01-29T00:42:34;13.35;;;9.73;;
72785;SDS011;60902;53.876;10.674;2023-01-29T00:43:03;13.18;;;8.90;;
72785;SDS011;60902;53.876;10.674;2023-01-29T00:43:32;13.27;;;9.45;;
72785;SDS011;60902;53.876;10.674;2023-01-29T00:44:01;13.05;;;9.77;;
72785;SDS011;60902;53.876;10.674;2023-01-29T00:44:42;12.07;;;9.00;;
72785;SDS011;60902;53.876;10.674;2023-01-29T00:45:08;12.55;;;9.43;;
72785;SDS011;60902;53.876;10.674;2023-01-29T00:45:19;12.57;;;9.48;;
72785;SDS011;60902;53.876;10.674;2023-01-29T00:45:31;12.68;;;9.70;;
72785;SDS011;60902;53.876;10.674;2023-01-29T00:45:42;12.90;;;9.82;;
72785;SDS011;60902;53.876;10.674;2023-01-29T00:45:52;13.23;;;9.73;;
72785;SDS011;60902;53.876;10.674;2023-01-29T00:46:03;12.88;;;9.40;;
72785;SDS011;60902;53.876;10.674;2023-01-29T00:46:15;12.85;;;9.60;;
72785;SDS011;60902;53.876;10.674;2023-01-29T00:46:26;12.68;;;9.93;;
72785;SDS011;60902;53.876;10.674;2023-01-29T00:46:37;12.70;;;9.60;;
72785;SDS011;60902;53.876;10.674;2023-01-29T00:46:48;12.90;;;9.25;;
72785;SDS011;60902;53.876;10.674;2023-01-29T00:47:00;12.73;;;9.05;;
72785;SDS011;60902;53.876;10.674;2023-01-29T00:47:12;13.05;;;9.20;;
72785;SDS011;60902;53.876;10.674;2023-01-29T00:47:39;12.73;;;9.63;;
72785;SDS011;60902;53.876;10.674;2023-01-29T00:47:50;13.30;;;9.45;;
72785;SDS011;60902;53.876;10.674;2023-01-29T00:48:01;13.05;;;9.27;;
72785;SDS011;60902;53.876;10.674;2023-01-29T00:48:13;12.48;;;8.80;;
72785;SDS011;60902;53.876;10.674;2023-01-29T00:48:25;12.27;;;8.98;;
72785;SDS011;60902;53.876;10.674;2023-01-29T00:48:35;12.35;;;9.13;;
72785;SDS011;60902;53.876;10.674;2023-01-29T00:48:47;12.65;;;9.35;;
72785;SDS011;60902;53.876;10.674;2023-01-29T00:48:58;12.48;;;9.45;;
72785;SDS011;60902;53.876;10.674;2023-01-29T00:49:08;12.15;;;9.30;;
72785;SDS011;60902;53.876;10.674;2023-01-29T00:49:19;12.25;;;9.32;;
72785;SDS011;60902;53.876;10.674;2023-01-29T00:49:30;12.55;;;9.25;;
72785;SDS011;60902;53.876;10.674;2023-01-29T00:49:41;13.10;;;9.10;;
72785;SDS011;60902;53.876;10.674;2023-01-29T00:49:52;13.15;;;9.10;;
72785;SDS011;60902;53.876;10.674;2023-01-29T00:50:03;12.55;;;9.15;;
72785;SDS011;60902;53.876;10.674;2023-01-29T00:50:16;12.65;;;9.32;;
72785;SDS011;60902;53.876;10.674;2023-01-29T00:50:27;12.73;;;9.52;;
72785;SDS011;60902;53.876;10.674;2023-01-29T00:50:38;13.07;;;9.63;;
72785;SDS011;60902;53.876;10.674;2023-01-29T00:50:49;13.10;;;10.03;;
72785;SDS011;60902;53.876;10.674;2023-01-29T00:51:00;12.93;;;9.68;;
72785;SDS011;60902;53.876;10.674;2023-01-29T00:51:12;14.13;;;9.63;;
72785;SDS011;60902;53.876;10.674;2023-01-29T00:51:22;13.80;;;9.32;;
72785;SDS011;60902;53.876;10.674;2023-01-29T00:51:33;14.63;;;9.50;;
72785;SDS011;60902;53.876;10.674;2023-01-29T00:51:48;13.40;;;9.50;;
72785;SDS011;60902;53.876;10.674;2023-01-29T00:52:14;13.07;;;9.32;;
72785;SDS011;60902;53.876;10.674;2023-01-29T00:52:33;12.88;;;9.20;;
72785;SDS011;60902;53.876;10.674;2023-01-29T00:52:45;12.95;;;9.40;;
72785;SDS011;60902;53.876;10.674;2023-01-29T00:52:57;13.40;;;9.43;;
72785;SDS011;60902;53.876;10.674;2023-01-29T00:53:08;13.25;;;9.15;;
72785;SDS011;60902;53.876;10.674;2023-01-29T00:53:20;12.68;;;9.10;;
72785;SDS011;60902;53.876;10.674;2023-01-29T00:53:49;12.95;;;9.02;;
72785;SDS011;60902;53.876;10.674;2023-01-29T00:54:00;12.68;;;9.38;;
72785;SDS011;60902;53.876;10.674;2023-01-29T00:54:13;12.30;;;9.32;;
72785;SDS011;60902;53.876;10.674;2023-01-29T00:54:24;12.67;;;9.17;;
72785;SDS011;60902;53.876;10.674;2023-01-29T00:54:35;12.60;;;9.18;;
72785;SDS011;60902;53.876;10.674;2023-01-29T00:54:45;12.68;;;9.20;;
72785;SDS011;60902;53.876;10.674;2023-01-29T00:54:57;12.50;;;9.30;;
72785;SDS011;60902;53.876;10.674;2023-01-29T00:55:09;12.27;;;9.18;;
72785;SDS011;60902;53.876;10.674;2023-01-29T00:55:21;12.38;;;9.35;;
72785;SDS011;60902;53.876;10.674;2023-01-29T00:55:32;12.40;;;9.02;;
72785;SDS011;60902;53.876;10.674;2023-01-29T00:55:43;12.60;;;8.93;;
72785;SDS011;60902;53.876;10.674;2023-01-29T00:55:54;13.10;;;8.63;;
72785;SDS011;60902;53.876;10.674;2023-01-29T00:56:05;13.43;;;9.07;;
72785;SDS011;60902;53.876;10.674;2023-01-29T00:56:16;12.90;;;9.00;;
72785;SDS011;60902;53.876;10.674;2023-01-29T00:56:28;12.20;;;8.93;;
72785;SDS011;60902;53.876;10.674;2023-01-29T00:56:39;12.30;;;9.10;;
72785;SDS011;60902;53.876;10.674;2023-01-29T00:56:50;12.10;;;9.43;;
72785;SDS011;60902;53.876;10.674;2023-01-29T00:57:01;12.13;;;9.32;;
72785;SDS011;60902;53.876;10.674;2023-01-29T00:57:12;12.07;;;9.52;;
72785;SDS011;60902;53.876;10.674;2023-01-29T00:57:23;12.40;;;9.45;;
72785;SDS011;60902;53.876;10.674;2023-01-29T00:57:36;12.15;;;9.50;;
72785;SDS011;60902;53.876;10.674;2023-01-29T00:57:48;12.57;;;9.45;;
72785;SDS011;60902;53.876;10.674;2023-01-29T00:57:59;12.80;;;9.63;;
72785;SDS011;60902;53.876;10.674;2023-01-29T00:58:10;12.80;;;9.43;;
72785;SDS011;60902;53.876;10.674;2023-01-29T00:58:21;12.30;;;9.23;;
72785;SDS011;60902;53.876;10.674;2023-01-29T00:58:43;12.30;;;9.05;;
72785;SDS011;60902;53.876;10.674;2023-01-29T00:58:53;12.40;;;9.37;;
72785;SDS011;60902;53.876;10.674;2023-01-29T00:59:05;11.52;;;9.25;;
72785;SDS011;60902;53.876;10.674;2023-01-29T00:59:16;12.23;;;9.50;;
72785;SDS011;60902;53.876;10.674;2023-01-29T00:59:27;12.40;;;9.30;;
72785;SDS011;60902;53.876;10.674;2023-01-29T00:59:39;12.23;;;9.00;;
72785;SDS011;60902;53.876;10.674;2023-01-29T00:59:49;11.40;;;8.45;;
72785;SDS011;60902;53.876;10.674;2023-01-29T01:00:00;11.43;;;8.57;;
72785;SDS011;60902;53.876;10.674;2023-01-29T01:00:13;12.25;;;9.63;;
72785;SDS011;60902;53.876;10.674;2023-01-29T01:00:27;12.45;;;9.77;;
72785;SDS011;60902;53.876;10.674;2023-01-29T01:00:37;12.23;;;9.53;;
72785;SDS011;60902;53.876;10.674;2023-01-29T01:00:48;12.57;;;9.52;;
72785;SDS011;60902;53.876;10.674;2023-01-29T01:01:00;12.95;;;9.82;;
72785;SDS011;60902;53.876;10.674;2023-01-29T01:01:11;12.98;;;9.73;;
72785;SDS011;60902;53.876;10.674;2023-01-29T01:01:22;12.40;;;9.30;;
72785;SDS011;60902;53.876;10.674;2023-01-29T01:01:48;11.80;;;9.27;;
72785;SDS011;60902;53.876;10.674;2023-01-29T01:02:17;12.82;;;8.98;;
72785;SDS011;60902;53.876;10.674;2023-01-29T01:02:47;12.57;;;9.20;;
72785;SDS011;60902;53.876;10.674;2023-01-29T01:03:16;13.02;;;9.90;;
72785;SDS011;60902;53.876;10.674;2023-01-29T01:03:27;12.13;;;9.02;;
72785;SDS011;60902;53.876;10.674;2023-01-29T01:03:38;12.35;;;8.88;;
72785;SDS011;60902;53.876;10.674;2023-01-29T01:03:51;11.90;;;8.48;;
72785;SDS011;60902;53.876;10.674;2023-01-29T01:04:02;11.90;;;8.65;;
72785;SDS011;60902;53.876;10.674;2023-01-29T01:04:12;12.50;;;8.98;;
72785;SDS011;60902;53.876;10.674;2023-01-29T01:04:24;12.63;;;8.98;;
72785;SDS011;60902;53.876;10.674;2023-01-29T01:04:35;11.90;;;8.67;;
72785;SDS011;60902;53.876;10.674;2023-01-29T01:04:46;11.93;;;8.68;;
72785;SDS011;60902;53.876;10.674;2023-01-29T01:04:57;11.98;;;8.75;;
72785;SDS011;60902;53.876;10.674;2023-01-29T01:05:08;12.52;;;9.00;;
72785;SDS011;60902;53.876;10.674;2023-01-29T01:05:23;12.75;;;9.15;;
72785;SDS011;60902;53.876;10.674;2023-01-29T01:05:34;13.10;;;9.15;;
72785;SDS011;60902;53.876;10.674;2023-01-29T01:05:48;12.82;;;8.90;;
72785;SDS011;60902;53.876;10.674;2023-01-29T01:06:02;12.38;;;8.52;;
72785;SDS011;60902;53.876;10.674;2023-01-29T01:06:13;12.18;;;8.90;;
72785;SDS011;60902;53.876;10.674;2023-01-29T01:06:24;11.80;;;8.80;;
72785;SDS011;60902;53.876;10.674;2023-01-29T01:06:35;12.35;;;8.90;;
72785;SDS011;60902;53.876;10.674;2023-01-29T01:06:48;12.20;;;8.70;;
72785;SDS011;60902;53.876;10.674;2023-01-29T01:06:59;12.17;;;8.60;;
72785;SDS011;60902;53.876;10.674;2023-01-29T01:07:09;11.73;;;8.73;;
72785;SDS011;60902;53.876;10.674;2023-01-29T01:07:20;11.35;;;8.77;;
72785;SDS011;60902;53.876;10.674;2023-01-29T01:07:31;11.25;;;8.75;;
72785;SDS011;60902;53.876;10.674;2023-01-29T01:07:42;11.02;;;8.23;;
72785;SDS011;60902;53.876;10.674;2023-01-29T01:07:55;11.35;;;8.75;;
72785;SDS011;60902;53.876;10.674;2023-01-29T01:08:07;11.95;;;9.00;;
72785;SDS011;60902;53.876;10.674;2023-01-29T01:08:34;11.73;;;8.52;;
72785;SDS011;60902;53.876;10.674;2023-01-29T01:09:03;11.68;;;8.52;;
72785;SDS011;60902;53.876;10.674;2023-01-29T01:09:40;11.35;;;8.43;;
72785;SDS011;60902;53.876;10.674;2023-01-29T01:10:12;12.98;;;9.38;;
72785;SDS011;60902;53.876;10.674;2023-01-29T01:10:31;11.70;;;8.73;;
72785;SDS011;60902;53.876;10.674;2023-01-29T01:10:42;11.43;;;8.32;;
72785;SDS011;60902;53.876;10.674;2023-01-29T01:10:57;11.30;;;8.43;;
72785;SDS011;60902;53.876;10.674;2023-01-29T01:11:09;12.20;;;8.50;;
72785;SDS011;60902;53.876;10.674;2023-01-29T01:11:20;12.50;;;8.70;;
72785;SDS011;60902;53.876;10.674;2023-01-29T01:11:32;12.57;;;9.07;;
72785;SDS011;60902;53.876;10.674;2023-01-29T01:11:44;11.88;;;8.80;;
72785;SDS011;60902;53.876;10.674;2023-01-29T01:11:54;11.77;;;8.57;;
72785;SDS011;60902;53.876;10.674;2023-01-29T01:12:05;11.68;;;8.65;;
72785;SDS011;60902;53.876;10.674;2023-01-29T01:12:16;11.60;;;8.48;;
72785;SDS011;60902;53.876;10.674;2023-01-29T01:12:27;11.68;;;8.40;;
72785;SDS011;60902;53.876;10.674;2023-01-29T01:12:38;11.90;;;8.43;;
72785;SDS011;60902;53.876;10.674;2023-01-29T01:12:51;11.52;;;8.52;;
72785;SDS011;60902;53.876;10.674;2023-01-29T01:13:05;11.32;;;8.60;;
72785;SDS011;60902;53.876;10.674;2023-01-29T01:13:16;11.77;;;8.85;;
72785;SDS011;60902;53.876;10.674;2023-01-29T01:13:27;12.03;;;9.17;;
72785;SDS011;60902;53.876;10.674;2023-01-29T01:13:38;12.25;;;9.10;;